ADDS METAR Data INFO
IDs: Format: Raw Decoded Include TAF

Data at: 0110 UTC 24 Jun 2018

K8A0 240055Z AUTO 18003KT 10SM CLR 24/24 A2992 RMK AO2 LTG DSNT W
K8A0 240035Z AUTO 18005KT 10SM CLR 24/24 A2991 RMK AO2 LTG DSNT W
K8A0 240015Z AUTO 17005KT 10SM CLR 25/25 A2990 RMK AO2
K8A0 232355Z AUTO 18004KT 10SM CLR 25/25 A2991 RMK AO2 LTG DSNT W
K8A0 232335Z AUTO 19006KT 10SM CLR 26/25 A2991 RMK AO2
K8A0 232315Z AUTO 19007KT 10SM CLR 25/25 A2991 RMK AO2
K8A0 232255Z AUTO 18008KT 10SM CLR 25/24 A2990 RMK AO2
K8A0 232235Z AUTO 18006KT 10SM CLR 25/24 A2991 RMK AO2
K8A0 232215Z AUTO 17003KT 10SM CLR 23/23 A2992 RMK AO2
K8A0 232155Z AUTO 19004KT 10SM CLR 22/22 A2992 RMK AO2
K8A0 232135Z AUTO 21007KT 10SM CLR 22/21 A2993 RMK AO2
K8A0 232115Z AUTO 25005KT 10SM -RA SCT044 BKN060 BKN075 22/21 A2994 RMK AO2 LTG DSNT SE AND NW
K8A0 232055Z AUTO 23009KT 10SM -RA SCT046 BKN055 BKN065 22/21 A2994 RMK AO2 P0001 LTG DSNT SE
K8A0 232035Z AUTO 15006KT 10SM VCTS SCT026 22/22 A2992 RMK AO2 LTG DSNT SE S AND NW
K8A0 232015Z AUTO 20010G19KT 10SM VCTS SCT026 23/22 A2994 RMK AO2 LTG DSNT S AND SW
K8A0 231955Z AUTO 23008KT 10SM CLR 23/23 A2995 RMK AO2 LTG DSNT W
K8A0 231935Z AUTO 22006KT 10SM CLR 22/22 A2994 RMK AO2 LTG DSNT W
K8A0 231915Z AUTO 21006KT 10SM CLR 22/22 A2994 RMK AO2 LTG DSNT W
K8A0 231855Z AUTO 20003KT 10SM SCT037 SCT047 SCT055 21/21 A2995 RMK AO2 P0004
K8A0 231835Z AUTO 00000KT 7SM -RA SCT031 BKN047 OVC065 20/20 A2995 RMK AO2 P0004 LTG DSNT W
K8A0 231815Z AUTO 18005KT 4SM RA BKN046 OVC055 20/20 A2997 RMK AO2 P0002 LTG DSNT S
K8A0 231755Z AUTO 14006KT 7SM RA BKN060 OVC070 20/20 A2996 RMK AO2 P0007 LTG DSNT NW
K8A0 231735Z AUTO 23005G15KT 4SM RA SCT015 BKN049 OVC100 21/21 A3000 RMK AO2 P0006 LTG DSNT S AND W
K8A0 231715Z AUTO 26018KT 10SM -RA SCT018 SCT047 BKN075 22/22 A3003 RMK AO2 LTG DSNT W AND NW
K8A0 231655Z AUTO 26009KT 10SM SCT065 SCT080 23/22 A2999 RMK AO2 LTG DSNT W AND NW
K8A0 231635Z AUTO 25009G16KT 10SM SCT065 23/21 A2998 RMK AO2 LTG DSNT W THRU N
K8A0 231615Z AUTO 22011KT 10SM CLR 23/22 A2996 RMK AO2 LTG DSNT SW THRU NW
K8A0 231555Z AUTO 22008G14KT 189V249 10SM CLR 23/22 A2997 RMK AO2 LTG DSNT SW THRU NW
K8A0 231535Z AUTO 21009KT 10SM SCT080 SCT100 23/22 A2996 RMK AO2 LTG DSNT NW
K8A0 231515Z AUTO 22010KT 10SM SCT047 SCT055 BKN080 23/22 A2996 RMK AO2 LTG DSNT W
K8A0 231455Z AUTO 21008KT 10SM SCT049 SCT055 BKN065 23/22 A2995 RMK AO2 LTG DSNT W AND NW
K8A0 231435Z AUTO 24011G19KT 10SM BKN013 BKN060 23/22 A2995 RMK AO2 LTG DSNT NW
K8A0 231415Z AUTO 24013KT 10SM BKN013 BKN065 OVC075 23/23 A2995 RMK AO2
K8A0 231355Z AUTO 22014G23KT 10SM SCT013 SCT065 OVC085 25/23 A2995 RMK AO2 LTG DSNT SW
K8A0 231335Z AUTO 22008KT 10SM VCTS BKN085 24/23 A2993 RMK AO2 LTG DSNT W
K8A0 231315Z AUTO 20007KT 159V229 10SM SCT035 SCT045 BKN085 23/23 A2993 RMK AO2
K8A0 231255Z AUTO 21006KT 10SM BKN037 BKN046 BKN055 23/23 A2993 RMK AO2 LTG DSNT NW
K8A0 231235Z AUTO 21005KT 10SM SCT041 BKN046 BKN055 22/22 A2993 RMK AO2 LTG DSNT W AND NW
K8A0 231215Z AUTO 23004KT 10SM SCT041 SCT055 SCT080 22/22 A2993 RMK AO2 LTG DSNT S THRU W
K8A0 231155Z AUTO 21004KT 10SM SCT041 SCT050 21/21 A2991 RMK AO2 LTG DSNT W
K8A0 231135Z AUTO 00000KT 10SM SCT090 20/20 A2991 RMK AO2 LTG DSNT W
K8A0 231115Z AUTO 19003KT 10SM SCT050 SCT065 BKN090 21/21 A2991 RMK AO2 LTG DSNT W
K8A0 231055Z AUTO 21004KT 10SM BKN055 20/20 A2991 RMK AO2 PWINO
K8A0 231035Z AUTO 21005KT 10SM SCT055 BKN065 20/20 A2989 RMK AO2
K8A0 231015Z AUTO 21005KT 10SM SCT065 SCT075 20/20 A2989 RMK AO2
K8A0 230955Z AUTO 19004KT 7SM SCT065 BKN075 20/20 A2987 RMK AO2
K8A0 230935Z AUTO 00000KT 10SM BKN075 20/20 A2987 RMK AO2
K8A0 230915Z AUTO 00000KT 10SM SCT075 20/20 A2986 RMK AO2
K8A0 230855Z AUTO 21003KT 10SM CLR 20/20 A2987 RMK AO2
K8A0 230835Z AUTO 20004KT 10SM CLR 20/20 A2986 RMK AO2
K8A0 230815Z AUTO 00000KT 7SM CLR 20/20 A2986 RMK AO2
K8A0 230755Z AUTO 00000KT 10SM SCT065 21/21 A2986 RMK AO2
K8A0 230735Z AUTO 22003KT 10SM SCT065 BKN080 21/21 A2986 RMK AO2
K8A0 230715Z AUTO 22005KT 10SM SCT065 OVC080 21/21 A2986 RMK AO2
K8A0 230655Z AUTO 25005KT 10SM SCT065 SCT080 21/21 A2986 RMK AO2
K8A0 230635Z AUTO 23008KT 10SM CLR 21/21 A2986 RMK AO2
K8A0 230615Z AUTO 24006KT 10SM CLR 21/21 A2985 RMK AO2 LTG DSNT SE
K8A0 230555Z AUTO 24004KT 10SM CLR 21/21 A2985 RMK AO2
K8A0 230535Z AUTO 23004KT 10SM CLR 21/21 A2985 RMK AO2
K8A0 230515Z AUTO 00000KT 10SM CLR 21/21 A2985 RMK AO2
K8A0 230455Z AUTO 23003KT 10SM SCT045 SCT055 21/21 A2985 RMK AO2
K8A0 230435Z AUTO 22004KT 10SM SCT045 BKN055 BKN090 21/21 A2985 RMK AO2
K8A0 230415Z AUTO 19005KT 10SM SCT049 BKN080 OVC110 21/21 A2985 RMK AO2
K8A0 230355Z AUTO 21004KT 10SM SCT044 SCT065 OVC085 21/21 A2985 RMK AO2 P0018
K8A0 230335Z AUTO 00000KT 10SM RA SCT008 BKN065 OVC085 21/21 A2985 RMK AO2 P0018
K8A0 230315Z AUTO 27004G20KT 2 1/2SM +RA SCT007 SCT024 OVC032 22/22 A2985 RMK AO2 P0016
K8A0 230255Z AUTO 20004KT 10SM SCT025 BKN034 OVC040 22/22 A2984 RMK AO2
K8A0 230235Z AUTO 22003KT 10SM SCT015 BKN033 OVC055 22/22 A2984 RMK AO2
K8A0 230215Z AUTO 23004KT 10SM SCT023 BKN030 BKN046 22/22 A2984 RMK AO2
K8A0 230155Z AUTO 21004KT 4SM -RA SCT007 SCT017 BKN049 21/21 A2982 RMK AO2 P0015 LTG DSNT NW
K8A0 230135Z AUTO 02004KT 4SM RA BKN017 BKN024 OVC041 22/22 A2982 RMK AO2 P0003
K8A0 230115Z AUTO 27004KT 10SM SCT015 BKN023 OVC039 25/25 A2982 RMK AO2
K8A0 230055Z AUTO 25003KT 10SM SCT015 BKN022 OVC029 25/24 A2981 RMK AO2 LTG DSNT NW
K8A0 230035Z AUTO 22003KT 10SM SCT029 BKN110 25/24 A2980 RMK AO2
K8A0 230015Z AUTO 22006KT 10SM SCT110 25/24 A2982 RMK AO2 LTG DSNT NW
K8A0 222355Z AUTO 21010KT 10SM CLR 25/24 A2980 RMK AO2
K8A0 222335Z AUTO 21005G14KT 10SM CLR 25/24 A2980 RMK AO2 LTG DSNT N AND NW
K8A0 222315Z AUTO 21009G14KT 10SM CLR 26/24 A2979 RMK AO2
K8A0 222255Z AUTO 22011G14KT 10SM CLR 26/24 A2980 RMK AO2
K8A0 222235Z AUTO 22010G16KT 10SM CLR 26/24 A2980 RMK AO2
K8A0 222215Z AUTO 22009G15KT 10SM SCT018 26/25 A2981 RMK AO2
K8A0 222155Z AUTO 24014G21KT 10SM SCT018 26/24 A2981 RMK AO2 LTG DSNT NW
K8A0 222135Z AUTO 23013G20KT 10SM SCT018 26/24 A2981 RMK AO2 LTG DSNT SE
K8A0 222115Z AUTO 22010G16KT 10SM CLR 26/23 A2982 RMK AO2
K8A0 222055Z AUTO 21013G20KT 189V249 10SM CLR 25/22 A2982 RMK AO2
K8A0 222035Z AUTO 21013G19KT 10SM SCT120 25/22 A2983 RMK AO2 LTG DSNT SE
K8A0 222015Z AUTO 22008G15KT 10SM BKN120 25/22 A2983 RMK AO2
K8A0 221955Z AUTO 25013G19KT 10SM BKN120 25/22 A2984 RMK AO2 P0002 LTG DSNT SE
K8A0 221935Z AUTO 22012G18KT 189V249 10SM -DZ SCT016 SCT028 SCT065 25/23 A2984 RMK AO2 P0002 LTG DSNT SE
K8A0 221915Z AUTO 23016G25KT 5SM RA SCT018 BKN027 BKN041 25/25 A2986 RMK AO2 P0001
K8A0 221855Z AUTO 23015G21KT 10SM SCT023 SCT029 SCT100 27/24 A2985 RMK AO2
K8A0 221835Z AUTO 21013G22KT 179V239 10SM SCT025 BKN110 27/24 A2986 RMK AO2 LTG DSNT W
K8A0 221815Z AUTO 21015G20KT 10SM SCT027 SCT090 SCT120 27/23 A2986 RMK AO2
K8A0 221755Z AUTO 21008KT 10SM SCT120 27/23 A2986 RMK AO2
K8A0 221735Z AUTO 21008KT 10SM SCT120 27/23 A2986 RMK AO2
K8A0 221715Z AUTO 22008KT 10SM CLR 27/22 A2987 RMK AO2 LTG DSNT W
K8A0 221655Z AUTO 24010KT 10SM CLR 27/22 A2987 RMK AO2
K8A0 221635Z AUTO 23007G15KT 10SM CLR 28/22 A2988 RMK AO2
K8A0 221615Z AUTO 23009G16KT 189V259 10SM CLR 27/22 A2988 RMK AO2
K8A0 221555Z AUTO 22008KT 10SM CLR 26/22 A2987 RMK AO2
K8A0 221535Z AUTO 21011KT 10SM CLR 26/22 A2987 RMK AO2
K8A0 221515Z AUTO 23006KT 10SM CLR 26/22 A2987 RMK AO2
K8A0 221455Z AUTO 20007KT 10SM CLR 25/22 A2987 RMK AO2
K8A0 221435Z AUTO 22006KT 10SM CLR 24/22 A2987 RMK AO2
K8A0 221415Z AUTO 23006KT 10SM SCT011 23/22 A2987 RMK AO2
K8A0 221355Z AUTO 24007KT 10SM SCT011 23/22 A2987 RMK AO2
K8A0 221335Z AUTO 23007G14KT 10SM SCT009 SCT013 22/22 A2987 RMK AO2
K8A0 221315Z AUTO 21008KT 10SM SCT007 22/21 A2987 RMK AO2